sensor_id;sensor_type;location;lat;lon;timestamp;P1;durP1;ratioP1;P2;durP2;ratioP2
75593;SDS011;64176;49.156;7.810;2023-11-18T00:02:09;8.30;;;5.90;;
75593;SDS011;64176;49.156;7.810;2023-11-18T00:04:55;10.05;;;5.63;;
75593;SDS011;64176;49.156;7.810;2023-11-18T00:07:39;12.55;;;8.13;;
75593;SDS011;64176;49.156;7.810;2023-11-18T00:10:26;11.82;;;6.60;;
75593;SDS011;64176;49.156;7.810;2023-11-18T00:13:10;9.30;;;4.78;;
75593;SDS011;64176;49.156;7.810;2023-11-18T00:15:54;8.15;;;5.72;;
75593;SDS011;64176;49.156;7.810;2023-11-18T00:18:39;9.50;;;6.60;;
75593;SDS011;64176;49.156;7.810;2023-11-18T00:21:23;11.90;;;8.82;;
75593;SDS011;64176;49.156;7.810;2023-11-18T00:24:07;35.97;;;21.73;;
75593;SDS011;64176;49.156;7.810;2023-11-18T00:26:56;17.60;;;11.75;;
75593;SDS011;64176;49.156;7.810;2023-11-18T00:29:43;13.73;;;8.93;;
75593;SDS011;64176;49.156;7.810;2023-11-18T00:32:30;14.80;;;9.68;;
75593;SDS011;64176;49.156;7.810;2023-11-18T00:35:15;11.98;;;8.40;;
75593;SDS011;64176;49.156;7.810;2023-11-18T00:38:02;12.80;;;8.20;;
75593;SDS011;64176;49.156;7.810;2023-11-18T00:43:33;14.02;;;8.52;;
75593;SDS011;64176;49.156;7.810;2023-11-18T00:46:17;10.13;;;5.80;;
75593;SDS011;64176;49.156;7.810;2023-11-18T00:49:01;22.60;;;10.88;;
75593;SDS011;64176;49.156;7.810;2023-11-18T00:51:49;21.45;;;11.07;;
75593;SDS011;64176;49.156;7.810;2023-11-18T00:54:33;14.95;;;7.95;;
75593;SDS011;64176;49.156;7.810;2023-11-18T00:57:21;18.88;;;7.80;;
75593;SDS011;64176;49.156;7.810;2023-11-18T01:00:08;14.27;;;6.10;;
75593;SDS011;64176;49.156;7.810;2023-11-18T01:02:57;18.83;;;9.57;;
75593;SDS011;64176;49.156;7.810;2023-11-18T01:05:41;21.45;;;9.38;;
75593;SDS011;64176;49.156;7.810;2023-11-18T01:08:25;36.08;;;15.07;;
75593;SDS011;64176;49.156;7.810;2023-11-18T01:11:09;30.77;;;11.27;;
75593;SDS011;64176;49.156;7.810;2023-11-18T01:13:53;21.05;;;9.68;;
75593;SDS011;64176;49.156;7.810;2023-11-18T01:16:42;29.27;;;12.05;;
75593;SDS011;64176;49.156;7.810;2023-11-18T01:19:28;11.07;;;7.00;;
75593;SDS011;64176;49.156;7.810;2023-11-18T01:22:12;19.27;;;9.68;;
75593;SDS011;64176;49.156;7.810;2023-11-18T01:24:57;19.48;;;8.55;;
75593;SDS011;64176;49.156;7.810;2023-11-18T01:27:42;15.82;;;7.68;;
75593;SDS011;64176;49.156;7.810;2023-11-18T01:30:31;14.40;;;7.03;;
75593;SDS011;64176;49.156;7.810;2023-11-18T01:33:17;14.63;;;7.35;;
75593;SDS011;64176;49.156;7.810;2023-11-18T01:36:02;18.90;;;8.60;;
75593;SDS011;64176;49.156;7.810;2023-11-18T01:38:47;22.80;;;10.90;;
75593;SDS011;64176;49.156;7.810;2023-11-18T01:41:31;18.05;;;9.00;;
75593;SDS011;64176;49.156;7.810;2023-11-18T01:44:16;14.00;;;7.03;;
75593;SDS011;64176;49.156;7.810;2023-11-18T01:47:01;11.15;;;6.22;;
75593;SDS011;64176;49.156;7.810;2023-11-18T01:49:49;10.95;;;7.07;;
75593;SDS011;64176;49.156;7.810;2023-11-18T01:52:35;12.57;;;7.60;;
75593;SDS011;64176;49.156;7.810;2023-11-18T01:55:20;13.27;;;7.13;;
75593;SDS011;64176;49.156;7.810;2023-11-18T01:58:05;13.93;;;5.82;;
75593;SDS011;64176;49.156;7.810;2023-11-18T02:00:54;10.73;;;6.53;;
75593;SDS011;64176;49.156;7.810;2023-11-18T02:03:41;10.05;;;6.35;;
75593;SDS011;64176;49.156;7.810;2023-11-18T02:06:31;24.35;;;11.70;;
75593;SDS011;64176;49.156;7.810;2023-11-18T02:09:17;18.02;;;10.43;;
75593;SDS011;64176;49.156;7.810;2023-11-18T02:15:03;8.23;;;5.38;;
75593;SDS011;64176;49.156;7.810;2023-11-18T02:17:56;10.07;;;6.05;;
75593;SDS011;64176;49.156;7.810;2023-11-18T02:20:41;13.18;;;6.88;;
75593;SDS011;64176;49.156;7.810;2023-11-18T02:23:27;10.48;;;6.57;;
75593;SDS011;64176;49.156;7.810;2023-11-18T02:26:20;12.15;;;7.53;;
75593;SDS011;64176;49.156;7.810;2023-11-18T02:29:06;10.38;;;6.38;;
75593;SDS011;64176;49.156;7.810;2023-11-18T02:31:56;12.77;;;6.93;;
75593;SDS011;64176;49.156;7.810;2023-11-18T02:34:48;12.07;;;7.00;;
75593;SDS011;64176;49.156;7.810;2023-11-18T02:37:40;12.55;;;6.45;;
75593;SDS011;64176;49.156;7.810;2023-11-18T02:40:35;18.52;;;8.32;;
75593;SDS011;64176;49.156;7.810;2023-11-18T02:43:24;18.45;;;9.18;;
75593;SDS011;64176;49.156;7.810;2023-11-18T02:46:12;11.82;;;7.20;;
75593;SDS011;64176;49.156;7.810;2023-11-18T02:48:57;9.75;;;6.18;;
75593;SDS011;64176;49.156;7.810;2023-11-18T02:51:43;9.30;;;6.28;;
75593;SDS011;64176;49.156;7.810;2023-11-18T02:54:31;10.20;;;6.43;;
75593;SDS011;64176;49.156;7.810;2023-11-18T02:57:16;9.88;;;5.93;;
75593;SDS011;64176;49.156;7.810;2023-11-18T03:00:03;10.93;;;6.57;;
75593;SDS011;64176;49.156;7.810;2023-11-18T03:02:49;10.45;;;6.20;;
75593;SDS011;64176;49.156;7.810;2023-11-18T03:05:35;9.95;;;5.80;;
75593;SDS011;64176;49.156;7.810;2023-11-18T03:08:20;9.82;;;5.88;;
75593;SDS011;64176;49.156;7.810;2023-11-18T03:11:04;9.02;;;5.68;;
75593;SDS011;64176;49.156;7.810;2023-11-18T03:13:48;14.52;;;6.38;;
75593;SDS011;64176;49.156;7.810;2023-11-18T03:16:32;8.93;;;5.25;;
75593;SDS011;64176;49.156;7.810;2023-11-18T03:19:17;9.35;;;5.13;;
75593;SDS011;64176;49.156;7.810;2023-11-18T03:22:03;11.38;;;5.40;;
75593;SDS011;64176;49.156;7.810;2023-11-18T03:24:49;7.47;;;5.22;;
75593;SDS011;64176;49.156;7.810;2023-11-18T03:27:33;7.72;;;4.75;;
75593;SDS011;64176;49.156;7.810;2023-11-18T03:30:20;6.80;;;5.43;;
75593;SDS011;64176;49.156;7.810;2023-11-18T03:33:04;8.43;;;4.78;;
75593;SDS011;64176;49.156;7.810;2023-11-18T03:35:50;5.88;;;4.20;;
75593;SDS011;64176;49.156;7.810;2023-11-18T03:38:39;8.07;;;5.07;;
75593;SDS011;64176;49.156;7.810;2023-11-18T03:41:26;7.65;;;4.80;;
75593;SDS011;64176;49.156;7.810;2023-11-18T03:44:11;6.65;;;4.50;;
75593;SDS011;64176;49.156;7.810;2023-11-18T03:46:58;6.88;;;4.82;;
75593;SDS011;64176;49.156;7.810;2023-11-18T03:49:42;6.97;;;4.50;;
75593;SDS011;64176;49.156;7.810;2023-11-18T03:52:26;12.65;;;5.65;;
75593;SDS011;64176;49.156;7.810;2023-11-18T03:55:11;9.82;;;5.20;;
75593;SDS011;64176;49.156;7.810;2023-11-18T03:57:55;6.72;;;4.68;;
75593;SDS011;64176;49.156;7.810;2023-11-18T04:00:40;9.13;;;5.30;;
75593;SDS011;64176;49.156;7.810;2023-11-18T04:03:24;9.23;;;5.07;;
75593;SDS011;64176;49.156;7.810;2023-11-18T04:06:08;10.85;;;5.78;;
75593;SDS011;64176;49.156;7.810;2023-11-18T04:08:52;7.53;;;4.68;;
75593;SDS011;64176;49.156;7.810;2023-11-18T04:11:37;7.97;;;4.70;;
75593;SDS011;64176;49.156;7.810;2023-11-18T04:14:22;10.93;;;6.25;;
75593;SDS011;64176;49.156;7.810;2023-11-18T04:17:09;10.05;;;4.72;;
75593;SDS011;64176;49.156;7.810;2023-11-18T04:19:53;9.23;;;5.40;;
75593;SDS011;64176;49.156;7.810;2023-11-18T04:22:40;10.07;;;4.95;;
75593;SDS011;64176;49.156;7.810;2023-11-18T04:25:25;9.43;;;5.32;;
75593;SDS011;64176;49.156;7.810;2023-11-18T04:28:09;8.20;;;4.97;;
75593;SDS011;64176;49.156;7.810;2023-11-18T04:30:54;8.43;;;5.40;;
75593;SDS011;64176;49.156;7.810;2023-11-18T04:33:40;11.63;;;5.60;;
75593;SDS011;64176;49.156;7.810;2023-11-18T04:36:24;9.30;;;5.53;;
75593;SDS011;64176;49.156;7.810;2023-11-18T04:39:10;9.85;;;6.13;;
75593;SDS011;64176;49.156;7.810;2023-11-18T04:42:02;9.77;;;4.70;;
75593;SDS011;64176;49.156;7.810;2023-11-18T04:44:46;9.70;;;5.05;;
75593;SDS011;64176;49.156;7.810;2023-11-18T04:47:30;9.65;;;5.93;;
75593;SDS011;64176;49.156;7.810;2023-11-18T04:50:14;10.27;;;5.70;;
75593;SDS011;64176;49.156;7.810;2023-11-18T04:52:58;8.43;;;5.28;;
75593;SDS011;64176;49.156;7.810;2023-11-18T04:55:43;10.77;;;5.32;;
75593;SDS011;64176;49.156;7.810;2023-11-18T04:58:29;10.02;;;5.97;;
75593;SDS011;64176;49.156;7.810;2023-11-18T05:01:18;9.57;;;6.45;;
75593;SDS011;64176;49.156;7.810;2023-11-18T05:04:02;11.00;;;5.30;;
75593;SDS011;64176;49.156;7.810;2023-11-18T05:06:47;10.05;;;5.60;;
75593;SDS011;64176;49.156;7.810;2023-11-18T05:09:31;10.27;;;5.18;;
75593;SDS011;64176;49.156;7.810;2023-11-18T05:12:17;11.32;;;5.65;;
75593;SDS011;64176;49.156;7.810;2023-11-18T05:15:04;9.93;;;5.00;;
75593;SDS011;64176;49.156;7.810;2023-11-18T05:17:51;9.15;;;5.93;;
75593;SDS011;64176;49.156;7.810;2023-11-18T05:20:36;10.00;;;6.03;;
75593;SDS011;64176;49.156;7.810;2023-11-18T05:23:23;11.75;;;6.00;;
75593;SDS011;64176;49.156;7.810;2023-11-18T05:26:07;10.93;;;6.30;;
75593;SDS011;64176;49.156;7.810;2023-11-18T05:28:52;14.65;;;5.93;;
75593;SDS011;64176;49.156;7.810;2023-11-18T05:31:38;11.25;;;5.75;;
75593;SDS011;64176;49.156;7.810;2023-11-18T05:34:27;12.35;;;5.75;;
75593;SDS011;64176;49.156;7.810;2023-11-18T05:37:11;11.25;;;6.10;;
75593;SDS011;64176;49.156;7.810;2023-11-18T05:39:56;14.23;;;5.80;;
75593;SDS011;64176;49.156;7.810;2023-11-18T05:42:49;11.48;;;6.40;;
75593;SDS011;64176;49.156;7.810;2023-11-18T05:45:35;11.45;;;6.80;;
75593;SDS011;64176;49.156;7.810;2023-11-18T05:48:38;12.27;;;6.88;;
75593;SDS011;64176;49.156;7.810;2023-11-18T05:51:26;14.98;;;7.15;;
75593;SDS011;64176;49.156;7.810;2023-11-18T05:54:12;14.80;;;6.88;;
75593;SDS011;64176;49.156;7.810;2023-11-18T05:56:56;14.45;;;6.25;;
75593;SDS011;64176;49.156;7.810;2023-11-18T05:59:43;11.32;;;5.75;;
75593;SDS011;64176;49.156;7.810;2023-11-18T06:02:27;15.93;;;7.05;;
75593;SDS011;64176;49.156;7.810;2023-11-18T06:05:11;10.40;;;6.03;;
75593;SDS011;64176;49.156;7.810;2023-11-18T06:07:56;14.27;;;5.60;;
75593;SDS011;64176;49.156;7.810;2023-11-18T06:10:42;12.45;;;6.22;;
75593;SDS011;64176;49.156;7.810;2023-11-18T06:13:28;16.00;;;7.53;;
75593;SDS011;64176;49.156;7.810;2023-11-18T06:16:15;17.48;;;7.72;;
75593;SDS011;64176;49.156;7.810;2023-11-18T06:19:05;12.30;;;6.85;;
75593;SDS011;64176;49.156;7.810;2023-11-18T06:21:50;12.43;;;6.60;;
75593;SDS011;64176;49.156;7.810;2023-11-18T06:24:34;13.00;;;6.35;;
75593;SDS011;64176;49.156;7.810;2023-11-18T06:27:18;10.88;;;6.45;;
75593;SDS011;64176;49.156;7.810;2023-11-18T06:30:07;12.45;;;6.30;;
75593;SDS011;64176;49.156;7.810;2023-11-18T06:32:51;13.65;;;7.10;;
75593;SDS011;64176;49.156;7.810;2023-11-18T06:35:38;14.38;;;6.93;;
75593;SDS011;64176;49.156;7.810;2023-11-18T06:38:27;13.38;;;7.00;;
75593;SDS011;64176;49.156;7.810;2023-11-18T06:41:14;10.25;;;5.38;;
75593;SDS011;64176;49.156;7.810;2023-11-18T06:43:59;12.48;;;6.60;;
75593;SDS011;64176;49.156;7.810;2023-11-18T06:47:03;13.68;;;7.00;;
75593;SDS011;64176;49.156;7.810;2023-11-18T06:49:52;13.38;;;6.93;;
75593;SDS011;64176;49.156;7.810;2023-11-18T06:52:37;17.13;;;7.18;;
75593;SDS011;64176;49.156;7.810;2023-11-18T06:55:22;14.65;;;7.22;;
75593;SDS011;64176;49.156;7.810;2023-11-18T06:58:09;12.65;;;6.70;;
75593;SDS011;64176;49.156;7.810;2023-11-18T07:00:53;16.65;;;10.20;;
75593;SDS011;64176;49.156;7.810;2023-11-18T07:03:37;14.43;;;7.88;;
75593;SDS011;64176;49.156;7.810;2023-11-18T07:06:27;14.82;;;6.70;;
75593;SDS011;64176;49.156;7.810;2023-11-18T07:09:11;13.05;;;6.53;;
75593;SDS011;64176;49.156;7.810;2023-11-18T07:12:02;11.13;;;6.15;;
75593;SDS011;64176;49.156;7.810;2023-11-18T07:14:47;11.73;;;7.05;;
75593;SDS011;64176;49.156;7.810;2023-11-18T07:17:32;16.25;;;8.10;;
75593;SDS011;64176;49.156;7.810;2023-11-18T07:20:18;15.35;;;8.43;;
75593;SDS011;64176;49.156;7.810;2023-11-18T07:23:05;24.05;;;13.90;;
75593;SDS011;64176;49.156;7.810;2023-11-18T07:25:49;23.20;;;13.20;;
75593;SDS011;64176;49.156;7.810;2023-11-18T07:28:33;16.25;;;9.07;;
75593;SDS011;64176;49.156;7.810;2023-11-18T07:31:25;19.27;;;9.18;;
75593;SDS011;64176;49.156;7.810;2023-11-18T07:34:09;12.98;;;6.45;;
75593;SDS011;64176;49.156;7.810;2023-11-18T07:36:55;22.05;;;12.77;;
75593;SDS011;64176;49.156;7.810;2023-11-18T07:39:41;21.08;;;11.82;;
75593;SDS011;64176;49.156;7.810;2023-11-18T07:42:31;14.95;;;9.93;;
75593;SDS011;64176;49.156;7.810;2023-11-18T07:45:18;17.35;;;10.95;;
75593;SDS011;64176;49.156;7.810;2023-11-18T07:48:03;10.48;;;7.35;;
75593;SDS011;64176;49.156;7.810;2023-11-18T07:50:52;9.73;;;5.78;;
75593;SDS011;64176;49.156;7.810;2023-11-18T07:53:37;8.35;;;5.50;;
75593;SDS011;64176;49.156;7.810;2023-11-18T07:56:24;7.80;;;5.22;;
75593;SDS011;64176;49.156;7.810;2023-11-18T07:59:11;11.00;;;5.72;;
75593;SDS011;64176;49.156;7.810;2023-11-18T08:02:01;10.13;;;5.72;;
75593;SDS011;64176;49.156;7.810;2023-11-18T08:04:46;7.90;;;4.55;;
75593;SDS011;64176;49.156;7.810;2023-11-18T08:07:30;9.60;;;4.68;;
75593;SDS011;64176;49.156;7.810;2023-11-18T08:10:14;7.28;;;4.53;;
75593;SDS011;64176;49.156;7.810;2023-11-18T08:13:05;9.30;;;6.65;;
75593;SDS011;64176;49.156;7.810;2023-11-18T08:15:53;11.65;;;7.03;;
75593;SDS011;64176;49.156;7.810;2023-11-18T08:18:41;8.30;;;5.05;;
75593;SDS011;64176;49.156;7.810;2023-11-18T08:21:25;11.35;;;6.80;;
75593;SDS011;64176;49.156;7.810;2023-11-18T08:24:09;23.35;;;13.93;;
75593;SDS011;64176;49.156;7.810;2023-11-18T08:26:53;15.02;;;10.32;;
75593;SDS011;64176;49.156;7.810;2023-11-18T08:29:38;10.95;;;6.40;;
75593;SDS011;64176;49.156;7.810;2023-11-18T08:32:23;19.38;;;12.93;;
75593;SDS011;64176;49.156;7.810;2023-11-18T08:35:14;22.25;;;13.25;;
75593;SDS011;64176;49.156;7.810;2023-11-18T08:38:02;14.98;;;10.45;;
75593;SDS011;64176;49.156;7.810;2023-11-18T08:40:49;10.77;;;6.22;;
75593;SDS011;64176;49.156;7.810;2023-11-18T08:43:35;12.48;;;7.95;;
75593;SDS011;64176;49.156;7.810;2023-11-18T08:46:19;8.07;;;6.10;;
75593;SDS011;64176;49.156;7.810;2023-11-18T08:49:03;12.70;;;7.45;;
75593;SDS011;64176;49.156;7.810;2023-11-18T08:51:54;14.13;;;10.38;;
75593;SDS011;64176;49.156;7.810;2023-11-18T08:54:41;12.43;;;10.07;;
75593;SDS011;64176;49.156;7.810;2023-11-18T08:57:49;22.08;;;18.60;;
75593;SDS011;64176;49.156;7.810;2023-11-18T09:00:42;8.27;;;6.78;;
75593;SDS011;64176;49.156;7.810;2023-11-18T09:03:46;8.23;;;4.28;;
75593;SDS011;64176;49.156;7.810;2023-11-18T09:06:36;5.65;;;3.65;;
75593;SDS011;64176;49.156;7.810;2023-11-18T09:09:25;4.97;;;3.45;;
75593;SDS011;64176;49.156;7.810;2023-11-18T09:12:12;9.30;;;3.67;;
75593;SDS011;64176;49.156;7.810;2023-11-18T09:14:58;7.15;;;3.28;;
75593;SDS011;64176;49.156;7.810;2023-11-18T09:17:50;7.78;;;2.88;;
75593;SDS011;64176;49.156;7.810;2023-11-18T09:20:36;5.18;;;2.80;;
75593;SDS011;64176;49.156;7.810;2023-11-18T09:23:21;5.30;;;2.90;;
75593;SDS011;64176;49.156;7.810;2023-11-18T09:26:12;4.68;;;3.40;;
75593;SDS011;64176;49.156;7.810;2023-11-18T09:28:56;6.22;;;3.65;;
75593;SDS011;64176;49.156;7.810;2023-11-18T09:31:48;5.57;;;3.50;;
75593;SDS011;64176;49.156;7.810;2023-11-18T09:34:35;7.78;;;5.40;;
75593;SDS011;64176;49.156;7.810;2023-11-18T09:37:19;9.55;;;5.68;;
75593;SDS011;64176;49.156;7.810;2023-11-18T09:40:04;6.15;;;3.30;;
75593;SDS011;64176;49.156;7.810;2023-11-18T09:42:58;4.40;;;2.50;;
75593;SDS011;64176;49.156;7.810;2023-11-18T09:45:43;6.78;;;3.33;;
75593;SDS011;64176;49.156;7.810;2023-11-18T09:48:29;6.32;;;5.57;;
75593;SDS011;64176;49.156;7.810;2023-11-18T09:51:14;4.90;;;3.78;;
75593;SDS011;64176;49.156;7.810;2023-11-18T09:54:05;5.35;;;3.55;;
75593;SDS011;64176;49.156;7.810;2023-11-18T10:00:00;7.60;;;2.88;;
75593;SDS011;64176;49.156;7.810;2023-11-18T10:03:04;5.20;;;3.20;;
75593;SDS011;64176;49.156;7.810;2023-11-18T10:05:52;9.15;;;3.92;;
75593;SDS011;64176;49.156;7.810;2023-11-18T10:08:38;4.03;;;2.58;;
75593;SDS011;64176;49.156;7.810;2023-11-18T10:11:23;3.95;;;2.28;;
75593;SDS011;64176;49.156;7.810;2023-11-18T10:14:07;4.65;;;2.13;;
75593;SDS011;64176;49.156;7.810;2023-11-18T10:16:54;3.70;;;2.63;;
75593;SDS011;64176;49.156;7.810;2023-11-18T10:19:54;7.00;;;5.10;;
75593;SDS011;64176;49.156;7.810;2023-11-18T10:22:40;8.57;;;5.05;;
75593;SDS011;64176;49.156;7.810;2023-11-18T10:25:24;6.63;;;4.47;;
75593;SDS011;64176;49.156;7.810;2023-11-18T10:28:09;8.50;;;5.78;;
75593;SDS011;64176;49.156;7.810;2023-11-18T10:31:06;7.43;;;5.50;;
75593;SDS011;64176;49.156;7.810;2023-11-18T10:33:53;6.88;;;4.45;;
75593;SDS011;64176;49.156;7.810;2023-11-18T10:36:38;6.45;;;3.72;;
75593;SDS011;64176;49.156;7.810;2023-11-18T10:39:22;10.32;;;4.10;;
75593;SDS011;64176;49.156;7.810;2023-11-18T10:42:11;3.63;;;2.60;;
75593;SDS011;64176;49.156;7.810;2023-11-18T10:45:02;3.53;;;2.55;;
75593;SDS011;64176;49.156;7.810;2023-11-18T10:47:49;6.93;;;2.55;;
75593;SDS011;64176;49.156;7.810;2023-11-18T10:50:36;3.25;;;2.47;;
75593;SDS011;64176;49.156;7.810;2023-11-18T10:53:22;2.50;;;1.83;;
75593;SDS011;64176;49.156;7.810;2023-11-18T10:56:06;3.25;;;2.10;;
75593;SDS011;64176;49.156;7.810;2023-11-18T10:59:04;3.95;;;2.13;;
75593;SDS011;64176;49.156;7.810;2023-11-18T11:01:51;5.45;;;2.88;;
75593;SDS011;64176;49.156;7.810;2023-11-18T11:04:44;4.00;;;1.95;;
75593;SDS011;64176;49.156;7.810;2023-11-18T11:07:33;8.68;;;4.82;;
75593;SDS011;64176;49.156;7.810;2023-11-18T11:10:17;5.38;;;3.17;;
75593;SDS011;64176;49.156;7.810;2023-11-18T11:13:08;4.35;;;2.53;;
75593;SDS011;64176;49.156;7.810;2023-11-18T11:15:53;9.23;;;8.23;;
75593;SDS011;64176;49.156;7.810;2023-11-18T11:18:40;3.85;;;2.40;;
75593;SDS011;64176;49.156;7.810;2023-11-18T11:21:43;3.17;;;2.00;;
75593;SDS011;64176;49.156;7.810;2023-11-18T11:24:53;3.47;;;2.05;;
75593;SDS011;64176;49.156;7.810;2023-11-18T11:31:07;6.70;;;2.75;;
75593;SDS011;64176;49.156;7.810;2023-11-18T11:37:09;2.63;;;2.30;;
75593;SDS011;64176;49.156;7.810;2023-11-18T11:39:58;3.33;;;2.03;;
75593;SDS011;64176;49.156;7.810;2023-11-18T11:42:42;4.40;;;2.60;;
75593;SDS011;64176;49.156;7.810;2023-11-18T11:45:30;4.97;;;2.65;;
75593;SDS011;64176;49.156;7.810;2023-11-18T11:48:15;3.80;;;2.10;;
75593;SDS011;64176;49.156;7.810;2023-11-18T11:54:06;11.77;;;10.18;;
75593;SDS011;64176;49.156;7.810;2023-11-18T11:57:02;6.38;;;2.50;;
75593;SDS011;64176;49.156;7.810;2023-11-18T12:02:36;4.00;;;1.83;;
75593;SDS011;64176;49.156;7.810;2023-11-18T12:05:24;3.58;;;2.33;;
75593;SDS011;64176;49.156;7.810;2023-11-18T12:08:09;3.90;;;2.45;;
75593;SDS011;64176;49.156;7.810;2023-11-18T12:14:04;3.97;;;2.33;;
75593;SDS011;64176;49.156;7.810;2023-11-18T12:17:16;8.05;;;3.03;;
75593;SDS011;64176;49.156;7.810;2023-11-18T12:20:04;3.42;;;2.55;;
75593;SDS011;64176;49.156;7.810;2023-11-18T12:23:48;5.65;;;2.95;;
75593;SDS011;64176;49.156;7.810;2023-11-18T12:27:04;6.07;;;3.83;;
75593;SDS011;64176;49.156;7.810;2023-11-18T12:29:54;16.42;;;8.88;;
75593;SDS011;64176;49.156;7.810;2023-11-18T12:33:11;9.40;;;6.30;;
75593;SDS011;64176;49.156;7.810;2023-11-18T12:45:57;4.25;;;2.60;;
75593;SDS011;64176;49.156;7.810;2023-11-18T12:48:49;10.23;;;6.28;;
75593;SDS011;64176;49.156;7.810;2023-11-18T12:51:35;11.45;;;6.63;;
75593;SDS011;64176;49.156;7.810;2023-11-18T12:54:20;22.77;;;14.77;;
75593;SDS011;64176;49.156;7.810;2023-11-18T12:57:11;6.93;;;4.68;;
75593;SDS011;64176;49.156;7.810;2023-11-18T12:59:58;3.60;;;2.05;;
75593;SDS011;64176;49.156;7.810;2023-11-18T13:02:44;5.07;;;2.80;;
75593;SDS011;64176;49.156;7.810;2023-11-18T13:05:28;5.78;;;2.45;;
75593;SDS011;64176;49.156;7.810;2023-11-18T13:08:15;4.68;;;2.17;;
75593;SDS011;64176;49.156;7.810;2023-11-18T13:10:59;9.05;;;6.35;;
75593;SDS011;64176;49.156;7.810;2023-11-18T13:13:48;17.80;;;9.43;;
75593;SDS011;64176;49.156;7.810;2023-11-18T13:16:33;16.60;;;9.77;;
75593;SDS011;64176;49.156;7.810;2023-11-18T13:23:25;9.77;;;4.45;;
75593;SDS011;64176;49.156;7.810;2023-11-18T13:26:09;8.73;;;3.80;;
75593;SDS011;64176;49.156;7.810;2023-11-18T13:28:55;4.68;;;2.53;;
75593;SDS011;64176;49.156;7.810;2023-11-18T13:31:39;6.70;;;3.78;;
75593;SDS011;64176;49.156;7.810;2023-11-18T13:34:24;3.53;;;2.75;;
75593;SDS011;64176;49.156;7.810;2023-11-18T13:37:14;7.63;;;2.50;;
75593;SDS011;64176;49.156;7.810;2023-11-18T13:40:03;6.40;;;4.35;;
75593;SDS011;64176;49.156;7.810;2023-11-18T13:43:00;4.28;;;3.20;;
75593;SDS011;64176;49.156;7.810;2023-11-18T13:45:50;6.45;;;2.63;;
75593;SDS011;64176;49.156;7.810;2023-11-18T13:48:37;6.30;;;3.60;;
75593;SDS011;64176;49.156;7.810;2023-11-18T13:51:23;5.28;;;3.35;;
75593;SDS011;64176;49.156;7.810;2023-11-18T13:54:08;9.50;;;4.53;;
75593;SDS011;64176;49.156;7.810;2023-11-18T13:56:53;4.80;;;2.92;;
75593;SDS011;64176;49.156;7.810;2023-11-18T13:59:38;6.18;;;3.58;;
75593;SDS011;64176;49.156;7.810;2023-11-18T14:05:17;6.15;;;2.78;;
75593;SDS011;64176;49.156;7.810;2023-11-18T14:08:02;5.10;;;3.03;;
75593;SDS011;64176;49.156;7.810;2023-11-18T14:10:52;6.00;;;3.95;;
75593;SDS011;64176;49.156;7.810;2023-11-18T14:13:36;4.15;;;2.50;;
75593;SDS011;64176;49.156;7.810;2023-11-18T14:16:23;4.70;;;3.17;;
75593;SDS011;64176;49.156;7.810;2023-11-18T14:19:07;3.75;;;2.80;;
75593;SDS011;64176;49.156;7.810;2023-11-18T14:21:51;5.95;;;3.28;;
75593;SDS011;64176;49.156;7.810;2023-11-18T14:24:36;7.20;;;3.40;;
75593;SDS011;64176;49.156;7.810;2023-11-18T14:27:20;9.43;;;6.40;;
75593;SDS011;64176;49.156;7.810;2023-11-18T14:30:04;9.05;;;5.53;;
75593;SDS011;64176;49.156;7.810;2023-11-18T14:32:52;5.38;;;3.15;;
75593;SDS011;64176;49.156;7.810;2023-11-18T14:35:36;5.85;;;4.20;;
75593;SDS011;64176;49.156;7.810;2023-11-18T14:38:24;3.60;;;2.63;;
75593;SDS011;64176;49.156;7.810;2023-11-18T14:41:10;5.22;;;3.45;;
75593;SDS011;64176;49.156;7.810;2023-11-18T14:43:54;4.55;;;2.55;;
75593;SDS011;64176;49.156;7.810;2023-11-18T14:46:39;4.45;;;3.35;;
75593;SDS011;64176;49.156;7.810;2023-11-18T14:49:25;8.60;;;3.60;;
75593;SDS011;64176;49.156;7.810;2023-11-18T14:52:09;6.18;;;4.03;;
75593;SDS011;64176;49.156;7.810;2023-11-18T14:54:53;9.52;;;6.55;;
75593;SDS011;64176;49.156;7.810;2023-11-18T14:57:40;5.80;;;4.05;;
75593;SDS011;64176;49.156;7.810;2023-11-18T15:00:25;7.22;;;5.38;;
75593;SDS011;64176;49.156;7.810;2023-11-18T15:03:11;7.80;;;4.43;;
75593;SDS011;64176;49.156;7.810;2023-11-18T15:05:55;6.32;;;4.97;;
75593;SDS011;64176;49.156;7.810;2023-11-18T15:08:41;5.13;;;3.13;;
75593;SDS011;64176;49.156;7.810;2023-11-18T15:11:27;5.78;;;3.65;;
75593;SDS011;64176;49.156;7.810;2023-11-18T15:14:12;11.15;;;4.63;;
75593;SDS011;64176;49.156;7.810;2023-11-18T15:16:58;4.88;;;4.03;;
75593;SDS011;64176;49.156;7.810;2023-11-18T15:19:43;8.13;;;5.22;;
75593;SDS011;64176;49.156;7.810;2023-11-18T15:22:27;11.63;;;7.00;;
75593;SDS011;64176;49.156;7.810;2023-11-18T15:25:12;5.38;;;4.60;;
75593;SDS011;64176;49.156;7.810;2023-11-18T15:27:56;5.00;;;3.28;;
75593;SDS011;64176;49.156;7.810;2023-11-18T15:30:40;8.02;;;4.60;;
75593;SDS011;64176;49.156;7.810;2023-11-18T15:33:24;5.05;;;3.92;;
75593;SDS011;64176;49.156;7.810;2023-11-18T15:36:08;6.93;;;4.07;;
75593;SDS011;64176;49.156;7.810;2023-11-18T15:38:54;5.53;;;3.22;;
75593;SDS011;64176;49.156;7.810;2023-11-18T15:41:38;7.38;;;3.65;;
75593;SDS011;64176;49.156;7.810;2023-11-18T15:44:27;11.57;;;6.47;;
75593;SDS011;64176;49.156;7.810;2023-11-18T15:47:12;8.07;;;6.55;;
75593;SDS011;64176;49.156;7.810;2023-11-18T15:49:57;7.65;;;5.28;;
75593;SDS011;64176;49.156;7.810;2023-11-18T15:52:45;5.65;;;3.33;;
75593;SDS011;64176;49.156;7.810;2023-11-18T15:55:32;8.05;;;5.10;;
75593;SDS011;64176;49.156;7.810;2023-11-18T15:58:19;7.40;;;4.43;;
75593;SDS011;64176;49.156;7.810;2023-11-18T16:01:06;5.05;;;3.65;;
75593;SDS011;64176;49.156;7.810;2023-11-18T16:03:51;5.50;;;4.03;;
75593;SDS011;64176;49.156;7.810;2023-11-18T16:06:35;5.40;;;3.67;;
75593;SDS011;64176;49.156;7.810;2023-11-18T16:09:21;6.70;;;4.20;;
75593;SDS011;64176;49.156;7.810;2023-11-18T16:12:06;6.22;;;4.55;;
75593;SDS011;64176;49.156;7.810;2023-11-18T16:14:53;4.85;;;3.63;;
75593;SDS011;64176;49.156;7.810;2023-11-18T16:17:37;6.25;;;4.40;;
75593;SDS011;64176;49.156;7.810;2023-11-18T16:20:24;6.32;;;3.40;;
75593;SDS011;64176;49.156;7.810;2023-11-18T16:23:10;5.85;;;3.22;;
75593;SDS011;64176;49.156;7.810;2023-11-18T16:25:54;4.43;;;3.15;;
75593;SDS011;64176;49.156;7.810;2023-11-18T16:28:38;6.30;;;3.65;;
75593;SDS011;64176;49.156;7.810;2023-11-18T16:31:22;9.27;;;5.25;;
75593;SDS011;64176;49.156;7.810;2023-11-18T16:34:06;7.50;;;5.15;;
75593;SDS011;64176;49.156;7.810;2023-11-18T16:36:53;11.07;;;8.38;;
75593;SDS011;64176;49.156;7.810;2023-11-18T16:39:45;9.32;;;6.82;;
75593;SDS011;64176;49.156;7.810;2023-11-18T16:42:29;6.65;;;3.35;;
75593;SDS011;64176;49.156;7.810;2023-11-18T16:45:14;4.13;;;2.33;;
75593;SDS011;64176;49.156;7.810;2023-11-18T16:47:58;5.05;;;3.20;;
75593;SDS011;64176;49.156;7.810;2023-11-18T16:50:42;6.60;;;3.53;;
75593;SDS011;64176;49.156;7.810;2023-11-18T16:53:27;5.05;;;2.58;;
75593;SDS011;64176;49.156;7.810;2023-11-18T16:56:12;18.73;;;10.05;;
75593;SDS011;64176;49.156;7.810;2023-11-18T16:58:56;17.88;;;11.07;;
75593;SDS011;64176;49.156;7.810;2023-11-18T17:01:41;10.35;;;5.55;;
75593;SDS011;64176;49.156;7.810;2023-11-18T17:04:25;7.32;;;4.18;;
75593;SDS011;64176;49.156;7.810;2023-11-18T17:07:13;9.50;;;7.03;;
75593;SDS011;64176;49.156;7.810;2023-11-18T17:10:00;7.65;;;4.57;;
75593;SDS011;64176;49.156;7.810;2023-11-18T17:12:45;5.22;;;3.47;;
75593;SDS011;64176;49.156;7.810;2023-11-18T17:15:29;10.27;;;5.35;;
75593;SDS011;64176;49.156;7.810;2023-11-18T17:18:15;11.10;;;6.40;;
75593;SDS011;64176;49.156;7.810;2023-11-18T17:21:01;22.08;;;14.32;;